Time;durP1;ratioP1;P1;durP2;ratioP2;P2;SDS_P1;SDS_P2;PMS_P1;PMS_P2;Temp;Humidity;BMP_temperature;BMP_pressure;BME280_temperature;BME280_humidity;BME280_pressure;Samples;Min_cycle;Max_cycle;Signal;HPM_P1;HPM_P2
2023/07/26 00:01:37;;;;;;;8.43;6.00;;;;;;;;;;5051515;28;20263;-74
2023/07/26 00:04:04;;;;;;;5.73;5.07;;;;;;;;;;5051685;28;20728;-74
2023/07/26 00:06:31;;;;;;;7.47;5.60;;;;;;;;;;5034277;28;20182;-74
2023/07/26 00:08:57;;;;;;;7.97;5.57;;;;;;;;;;5017578;28;20218;-74
2023/07/26 00:11:23;;;;;;;7.03;5.70;;;;;;;;;;5043545;28;20217;-74
2023/07/26 00:13:49;;;;;;;5.90;5.30;;;;;;;;;;5033593;28;20194;-74
2023/07/26 00:16:15;;;;;;;7.87;5.20;;;;;;;;;;5033062;28;20182;-74
2023/07/26 00:18:41;;;;;;;7.10;6.00;;;;;;;;;;5032933;28;20188;-74
2023/07/26 00:21:08;;;;;;;8.53;6.00;;;;;;;;;;5046686;28;20701;-74
2023/07/26 00:23:34;;;;;;;7.73;6.03;;;;;;;;;;5032842;28;20197;-74
2023/07/26 00:26:00;;;;;;;9.43;6.40;;;;;;;;;;5050596;28;20260;-74
2023/07/26 00:28:26;;;;;;;6.60;6.00;;;;;;;;;;5050667;28;20198;-74
2023/07/26 00:30:52;;;;;;;6.53;5.80;;;;;;;;;;5032698;28;20211;-74
2023/07/26 00:33:19;;;;;;;9.13;6.60;;;;;;;;;;5050172;28;20214;-74
2023/07/26 00:35:45;;;;;;;8.67;5.90;;;;;;;;;;5050388;28;20178;-74
2023/07/26 00:38:11;;;;;;;7.60;6.50;;;;;;;;;;5050013;28;20315;-74
2023/07/26 00:40:37;;;;;;;7.10;6.20;;;;;;;;;;5032605;28;20196;-74
2023/07/26 00:43:05;;;;;;;7.90;6.33;;;;;;;;;;5050383;28;20210;-74
2023/07/26 00:45:33;;;;;;;9.13;6.70;;;;;;;;;;5049552;28;20582;-74
2023/07/26 00:48:00;;;;;;;8.60;6.30;;;;;;;;;;5032295;28;20207;-74
2023/07/26 00:50:26;;;;;;;9.30;6.37;;;;;;;;;;5032112;28;20178;-74
2023/07/26 00:52:53;;;;;;;8.73;6.67;;;;;;;;;;5027279;28;20201;-74
2023/07/26 00:55:19;;;;;;;9.87;6.53;;;;;;;;;;5049748;28;20178;-74
2023/07/26 00:57:46;;;;;;;7.27;6.27;;;;;;;;;;5032052;28;20180;-73
2023/07/26 01:00:13;;;;;;;8.77;5.87;;;;;;;;;;5041217;28;20212;-74
2023/07/26 01:02:40;;;;;;;7.17;6.00;;;;;;;;;;5031047;28;20620;-74
2023/07/26 01:05:06;;;;;;;7.00;6.33;;;;;;;;;;5049711;28;20190;-74
2023/07/26 01:07:36;;;;;;;6.60;6.00;;;;;;;;;;5031477;28;20650;-74
2023/07/26 01:10:13;;;;;;;9.77;6.27;;;;;;;;;;5050284;28;20615;-74
2023/07/26 01:12:43;;;;;;;7.10;6.40;;;;;;;;;;5029193;28;20223;-74
2023/07/26 01:15:12;;;;;;;9.30;6.60;;;;;;;;;;5046736;28;20205;-74
2023/07/26 01:17:38;;;;;;;8.90;6.40;;;;;;;;;;5040938;28;20198;-74
2023/07/26 01:20:05;;;;;;;7.40;6.37;;;;;;;;;;5049361;28;20670;-74
2023/07/26 01:22:32;;;;;;;7.60;6.80;;;;;;;;;;5015145;28;20676;-74
2023/07/26 01:24:58;;;;;;;7.20;6.50;;;;;;;;;;5049243;28;20178;-74
2023/07/26 01:27:25;;;;;;;8.13;6.67;;;;;;;;;;5031364;28;20212;-74
2023/07/26 01:29:55;;;;;;;7.07;6.47;;;;;;;;;;5049324;28;20749;-74
2023/07/26 01:32:22;;;;;;;7.53;6.83;;;;;;;;;;5049094;28;20212;-74
2023/07/26 01:34:49;;;;;;;8.43;7.07;;;;;;;;;;5031253;28;20598;-74
2023/07/26 01:37:15;;;;;;;8.73;7.47;;;;;;;;;;5048658;28;20174;-74
2023/07/26 01:39:41;;;;;;;8.47;7.60;;;;;;;;;;5047643;28;20192;-74
2023/07/26 01:42:08;;;;;;;8.17;7.37;;;;;;;;;;5045821;28;20201;-74
2023/07/26 01:44:38;;;;;;;8.77;7.80;;;;;;;;;;5031307;28;20186;-74
2023/07/26 01:47:05;;;;;;;9.30;8.07;;;;;;;;;;5030998;28;20182;-74
2023/07/26 01:49:31;;;;;;;8.57;7.77;;;;;;;;;;5048773;28;20209;-74
2023/07/26 01:51:59;;;;;;;10.00;8.80;;;;;;;;;;5011044;28;20250;-74
2023/07/26 01:54:25;;;;;;;8.20;7.40;;;;;;;;;;5026704;28;20181;-74
2023/07/26 01:56:51;;;;;;;9.07;8.20;;;;;;;;;;5043956;28;20189;-74
2023/07/26 01:59:18;;;;;;;9.83;8.87;;;;;;;;;;5013186;28;20486;-74
2023/07/26 02:01:44;;;;;;;8.33;7.63;;;;;;;;;;5030357;28;20592;-74
2023/07/26 02:04:11;;;;;;;8.90;8.00;;;;;;;;;;5031251;28;20617;-74
2023/07/26 02:06:37;;;;;;;9.30;8.13;;;;;;;;;;5023026;28;20233;-74
2023/07/26 02:09:03;;;;;;;9.70;8.57;;;;;;;;;;5030871;28;20563;-74
2023/07/26 02:11:30;;;;;;;8.97;8.10;;;;;;;;;;5026905;28;20206;-74
2023/07/26 02:13:56;;;;;;;9.00;8.10;;;;;;;;;;5030775;28;20206;-74
2023/07/26 02:16:22;;;;;;;9.73;8.83;;;;;;;;;;5048333;28;20180;-74
2023/07/26 02:18:49;;;;;;;10.87;8.30;;;;;;;;;;5013000;28;20216;-74
2023/07/26 02:21:16;;;;;;;9.43;8.53;;;;;;;;;;5016825;28;20181;-74
2023/07/26 02:23:43;;;;;;;9.50;8.50;;;;;;;;;;5030669;28;20263;-74
2023/07/26 02:26:09;;;;;;;8.67;7.77;;;;;;;;;;5030454;28;20189;-74
2023/07/26 02:28:35;;;;;;;8.80;7.93;;;;;;;;;;5048628;28;20251;-74
2023/07/26 02:31:02;;;;;;;10.70;9.17;;;;;;;;;;5030863;28;20654;-74
2023/07/26 02:33:29;;;;;;;9.67;8.17;;;;;;;;;;5014721;28;20618;-74
2023/07/26 02:35:59;;;;;;;9.23;8.33;;;;;;;;;;5031452;28;20178;-74
2023/07/26 02:38:25;;;;;;;9.93;8.90;;;;;;;;;;5022703;28;20216;-74
2023/07/26 02:40:51;;;;;;;8.87;8.07;;;;;;;;;;5049240;28;20615;-74
2023/07/26 02:43:18;;;;;;;9.30;8.47;;;;;;;;;;5011318;28;20625;-74
2023/07/26 02:45:44;;;;;;;9.53;8.70;;;;;;;;;;5030688;28;20182;-74
2023/07/26 02:48:10;;;;;;;10.03;8.43;;;;;;;;;;5010573;28;20306;-74
2023/07/26 02:50:36;;;;;;;10.07;8.83;;;;;;;;;;5030231;28;20225;-72
2023/07/26 02:53:02;;;;;;;9.43;8.43;;;;;;;;;;5048030;28;20202;-72
2023/07/26 02:55:28;;;;;;;9.63;8.73;;;;;;;;;;5048467;28;20191;-72
2023/07/26 02:57:55;;;;;;;9.13;8.23;;;;;;;;;;5047440;28;20273;-72
2023/07/26 03:00:21;;;;;;;9.77;8.87;;;;;;;;;;5019213;28;20190;-72
2023/07/26 03:02:47;;;;;;;8.90;8.00;;;;;;;;;;5048310;28;20201;-72
2023/07/26 03:05:13;;;;;;;11.97;8.20;;;;;;;;;;5048412;28;20543;-72
2023/07/26 03:07:41;;;;;;;8.83;7.90;;;;;;;;;;5031345;28;20182;-72
2023/07/26 03:10:07;;;;;;;8.87;7.97;;;;;;;;;;5015040;28;20191;-72
2023/07/26 03:12:33;;;;;;;8.60;7.70;;;;;;;;;;5052381;28;20290;-72
2023/07/26 03:14:59;;;;;;;9.03;8.00;;;;;;;;;;5052343;28;20618;-72
2023/07/26 03:17:25;;;;;;;9.17;8.37;;;;;;;;;;5034305;28;20374;-72
2023/07/26 03:19:55;;;;;;;9.03;8.10;;;;;;;;;;5017651;28;20174;-72
2023/07/26 03:22:21;;;;;;;8.90;8.00;;;;;;;;;;5051916;28;20212;-72
2023/07/26 03:24:47;;;;;;;10.97;8.63;;;;;;;;;;5033946;28;20722;-72
2023/07/26 03:27:14;;;;;;;10.70;8.17;;;;;;;;;;5033455;28;20182;-72
2023/07/26 03:29:40;;;;;;;8.67;7.87;;;;;;;;;;5051118;28;20708;-72
2023/07/26 03:32:06;;;;;;;10.10;9.10;;;;;;;;;;5033547;28;20242;-72
2023/07/26 03:34:33;;;;;;;9.77;8.57;;;;;;;;;;5051038;28;20187;-72
2023/07/26 03:36:59;;;;;;;10.03;7.83;;;;;;;;;;5051202;28;20186;-72
2023/07/26 03:39:25;;;;;;;8.77;7.70;;;;;;;;;;5051259;28;20208;-72
2023/07/26 03:41:52;;;;;;;8.83;7.83;;;;;;;;;;5051164;28;20287;-72
2023/07/26 03:44:18;;;;;;;8.73;7.90;;;;;;;;;;5051271;28;20178;-72
2023/07/26 03:46:45;;;;;;;9.13;8.23;;;;;;;;;;5031512;28;20186;-72
2023/07/26 03:49:11;;;;;;;9.03;7.70;;;;;;;;;;5048297;28;20214;-72
2023/07/26 03:51:37;;;;;;;10.07;8.10;;;;;;;;;;5033022;28;20198;-72
2023/07/26 03:54:04;;;;;;;9.40;7.87;;;;;;;;;;5016759;28;20276;-72
2023/07/26 03:56:30;;;;;;;11.00;7.90;;;;;;;;;;5051430;28;20461;-72
2023/07/26 03:58:56;;;;;;;9.07;8.17;;;;;;;;;;5051365;28;20181;-72
2023/07/26 04:01:23;;;;;;;8.80;7.90;;;;;;;;;;5033459;28;20676;-72
2023/07/26 04:03:49;;;;;;;9.73;8.73;;;;;;;;;;5033440;28;20484;-72
2023/07/26 04:06:15;;;;;;;9.87;8.40;;;;;;;;;;5051497;28;20186;-72
2023/07/26 04:08:42;;;;;;;8.93;8.03;;;;;;;;;;5033497;28;20209;-72
2023/07/26 04:11:08;;;;;;;9.47;8.27;;;;;;;;;;5051410;28;20210;-72
2023/07/26 04:13:34;;;;;;;12.77;8.27;;;;;;;;;;5051360;28;20739;-72
2023/07/26 04:16:00;;;;;;;11.10;8.67;;;;;;;;;;5051055;28;20209;-72
2023/07/26 04:18:27;;;;;;;8.73;7.80;;;;;;;;;;5033387;28;20551;-72
2023/07/26 04:20:54;;;;;;;11.00;8.37;;;;;;;;;;5046536;28;20186;-72
2023/07/26 04:23:20;;;;;;;9.13;7.80;;;;;;;;;;5034510;28;20206;-72
2023/07/26 04:25:50;;;;;;;10.73;8.57;;;;;;;;;;5051047;28;20182;-72
2023/07/26 04:28:17;;;;;;;10.23;8.73;;;;;;;;;;5032956;28;20194;-72
2023/07/26 04:30:43;;;;;;;10.27;8.43;;;;;;;;;;5050833;28;20546;-72
2023/07/26 04:33:09;;;;;;;12.10;8.73;;;;;;;;;;5050690;28;20205;-72
2023/07/26 04:35:35;;;;;;;9.07;8.17;;;;;;;;;;5050808;28;20196;-72
2023/07/26 04:38:02;;;;;;;10.20;8.77;;;;;;;;;;5050895;28;20638;-72
2023/07/26 04:40:28;;;;;;;9.47;8.03;;;;;;;;;;5012262;28;20190;-72
2023/07/26 04:42:54;;;;;;;9.10;8.20;;;;;;;;;;5050821;28;20202;-72
2023/07/26 04:45:20;;;;;;;9.17;8.23;;;;;;;;;;5050724;28;20174;-72
2023/07/26 04:47:46;;;;;;;8.70;7.80;;;;;;;;;;5032933;28;20182;-72
2023/07/26 04:50:12;;;;;;;10.83;8.83;;;;;;;;;;5050654;28;20224;-72
2023/07/26 04:52:38;;;;;;;10.70;8.63;;;;;;;;;;5050609;28;20198;-72
2023/07/26 04:55:08;;;;;;;9.37;8.37;;;;;;;;;;5013130;28;20187;-72
2023/07/26 04:57:37;;;;;;;9.83;8.27;;;;;;;;;;5029236;28;20174;-72
2023/07/26 05:00:04;;;;;;;9.17;8.30;;;;;;;;;;5065338;22;20381;-75
2023/07/26 05:02:31;;;;;;;8.50;7.77;;;;;;;;;;4992683;28;20237;-75
2023/07/26 05:04:57;;;;;;;10.57;7.70;;;;;;;;;;5008605;28;20195;-75
2023/07/26 05:07:23;;;;;;;8.03;7.30;;;;;;;;;;5007606;28;20179;-75
2023/07/26 05:09:49;;;;;;;8.67;7.30;;;;;;;;;;5024499;28;20206;-75
2023/07/26 05:12:15;;;;;;;9.17;7.60;;;;;;;;;;5006745;28;20213;-75
2023/07/26 05:14:43;;;;;;;8.00;7.27;;;;;;;;;;5009022;28;20192;-75
2023/07/26 05:17:09;;;;;;;7.80;7.00;;;;;;;;;;5016734;28;20699;-75
2023/07/26 05:19:35;;;;;;;7.53;6.50;;;;;;;;;;5021970;28;20187;-75
2023/07/26 05:22:01;;;;;;;8.23;7.10;;;;;;;;;;5023462;28;20578;-75
2023/07/26 05:24:27;;;;;;;8.93;7.47;;;;;;;;;;5022109;28;20456;-75
2023/07/26 05:26:53;;;;;;;9.33;7.50;;;;;;;;;;5024190;28;20218;-74
2023/07/26 05:29:20;;;;;;;8.70;7.27;;;;;;;;;;5029269;28;20674;-71
2023/07/26 05:31:46;;;;;;;9.10;7.23;;;;;;;;;;5011449;28;20203;-71
2023/07/26 05:34:12;;;;;;;10.70;7.60;;;;;;;;;;4996791;28;20240;-72
2023/07/26 05:36:38;;;;;;;10.37;7.67;;;;;;;;;;4981138;28;20202;-74
2023/07/26 05:39:05;;;;;;;12.77;8.40;;;;;;;;;;4979976;28;20214;-73
2023/07/26 05:41:31;;;;;;;9.00;7.63;;;;;;;;;;4981032;28;20214;-72
2023/07/26 05:44:01;;;;;;;9.47;8.27;;;;;;;;;;4985096;28;20198;-73
2023/07/26 05:46:27;;;;;;;9.47;8.37;;;;;;;;;;4996549;28;20187;-74
2023/07/26 05:48:53;;;;;;;10.20;7.27;;;;;;;;;;5007751;28;20245;-74
2023/07/26 05:51:20;;;;;;;9.40;7.90;;;;;;;;;;4996798;28;20191;-73
2023/07/26 05:53:46;;;;;;;8.67;7.70;;;;;;;;;;4996859;28;20195;-73
2023/07/26 05:56:14;;;;;;;9.67;8.00;;;;;;;;;;4983215;28;20194;-73
2023/07/26 05:58:40;;;;;;;10.70;8.13;;;;;;;;;;4980536;28;20209;-74
2023/07/26 06:01:06;;;;;;;10.90;8.03;;;;;;;;;;4984536;28;20217;-74
2023/07/26 06:03:35;;;;;;;9.37;7.77;;;;;;;;;;4980580;28;20217;-74
2023/07/26 06:06:01;;;;;;;11.40;7.80;;;;;;;;;;4974445;28;20205;-74
2023/07/26 06:08:28;;;;;;;9.50;7.90;;;;;;;;;;4979828;28;20253;-73
2023/07/26 06:10:54;;;;;;;10.90;8.07;;;;;;;;;;4980439;28;20189;-74
2023/07/26 06:13:20;;;;;;;8.70;7.83;;;;;;;;;;4980198;28;20310;-75
2023/07/26 06:15:46;;;;;;;11.40;8.00;;;;;;;;;;5028794;28;20162;-74
2023/07/26 06:18:12;;;;;;;8.70;7.67;;;;;;;;;;5018924;28;20221;-74
2023/07/26 06:20:39;;;;;;;9.33;8.07;;;;;;;;;;5025252;28;20651;-73
2023/07/26 06:23:06;;;;;;;9.53;8.53;;;;;;;;;;4995197;28;20282;-74
2023/07/26 06:25:32;;;;;;;9.67;8.57;;;;;;;;;;5002426;28;20197;-74
2023/07/26 06:27:59;;;;;;;9.70;8.20;;;;;;;;;;5028599;28;20189;-74
2023/07/26 06:30:25;;;;;;;10.37;8.73;;;;;;;;;;5028763;28;20205;-74
2023/07/26 06:32:51;;;;;;;10.63;7.60;;;;;;;;;;4992108;28;20641;-74
2023/07/26 06:35:17;;;;;;;10.63;8.07;;;;;;;;;;5025459;28;20548;-73
2023/07/26 06:37:43;;;;;;;11.43;8.80;;;;;;;;;;5026970;28;20193;-73
2023/07/26 06:40:10;;;;;;;10.67;8.33;;;;;;;;;;5026915;28;20175;-74
2023/07/26 06:42:36;;;;;;;9.90;8.50;;;;;;;;;;5029357;28;20671;-75
2023/07/26 06:45:03;;;;;;;9.43;7.83;;;;;;;;;;5033864;28;20186;-75
2023/07/26 06:47:29;;;;;;;10.90;8.27;;;;;;;;;;5025722;28;20178;-74
2023/07/26 06:49:55;;;;;;;8.60;7.70;;;;;;;;;;5032174;28;20715;-74
2023/07/26 06:52:21;;;;;;;11.13;7.80;;;;;;;;;;5026151;28;20217;-74
2023/07/26 06:54:48;;;;;;;8.17;7.33;;;;;;;;;;5028220;28;20255;-74
2023/07/26 06:57:14;;;;;;;11.97;8.13;;;;;;;;;;5021199;28;20634;-73
2023/07/26 06:59:40;;;;;;;8.80;7.97;;;;;;;;;;5032244;28;20655;-74
2023/07/26 07:02:06;;;;;;;9.60;8.30;;;;;;;;;;5014812;28;20221;-74
2023/07/26 07:04:33;;;;;;;10.40;8.43;;;;;;;;;;5014525;28;20881;-74
2023/07/26 07:06:59;;;;;;;8.67;7.77;;;;;;;;;;5031893;28;20191;-74
2023/07/26 07:09:26;;;;;;;9.63;8.73;;;;;;;;;;5010075;28;20214;-73
2023/07/26 07:11:52;;;;;;;9.07;8.27;;;;;;;;;;5014358;28;20198;-74
2023/07/26 07:14:18;;;;;;;9.77;7.87;;;;;;;;;;5031174;28;20265;-73
2023/07/26 07:16:45;;;;;;;8.73;7.37;;;;;;;;;;5013607;28;20298;-74
2023/07/26 07:19:11;;;;;;;7.67;6.97;;;;;;;;;;5028337;28;20273;-75
2023/07/26 07:21:37;;;;;;;7.90;7.10;;;;;;;;;;4984330;28;20202;-76
2023/07/26 07:24:04;;;;;;;7.80;6.97;;;;;;;;;;5029464;28;20604;-74
2023/07/26 07:26:30;;;;;;;7.13;6.30;;;;;;;;;;5016340;28;20190;-74
2023/07/26 07:28:57;;;;;;;8.57;6.67;;;;;;;;;;5023539;28;20675;-74
2023/07/26 07:31:23;;;;;;;7.40;6.70;;;;;;;;;;5009219;28;20238;-74
2023/07/26 07:33:49;;;;;;;9.07;7.13;;;;;;;;;;5005836;28;20458;-74
2023/07/26 07:36:18;;;;;;;8.80;8.00;;;;;;;;;;5007769;28;20192;-76
2023/07/26 07:38:45;;;;;;;8.93;8.03;;;;;;;;;;5025133;28;21079;-74
2023/07/26 07:41:11;;;;;;;9.77;7.97;;;;;;;;;;5022669;28;20285;-74
2023/07/26 07:43:38;;;;;;;10.50;8.70;;;;;;;;;;5006138;28;20171;-75
2023/07/26 07:46:05;;;;;;;7.83;6.97;;;;;;;;;;5023962;28;20543;-75
2023/07/26 07:48:31;;;;;;;7.37;6.60;;;;;;;;;;5022524;28;20622;-74
2023/07/26 07:50:57;;;;;;;8.17;6.23;;;;;;;;;;5025203;28;20198;-74
2023/07/26 07:53:24;;;;;;;7.03;6.37;;;;;;;;;;5029403;28;20191;-74
2023/07/26 07:55:50;;;;;;;7.40;6.23;;;;;;;;;;5008897;28;20667;-75
2023/07/26 07:58:17;;;;;;;6.57;5.80;;;;;;;;;;5025536;28;20183;-74
2023/07/26 08:00:43;;;;;;;6.90;6.20;;;;;;;;;;5030964;28;20240;-74
2023/07/26 08:03:09;;;;;;;6.37;5.77;;;;;;;;;;5024274;28;20625;-74
2023/07/26 08:05:36;;;;;;;6.17;5.40;;;;;;;;;;5021785;28;20179;-74
2023/07/26 08:08:02;;;;;;;6.90;5.87;;;;;;;;;;5007464;28;20564;-74
2023/07/26 08:10:29;;;;;;;6.53;5.40;;;;;;;;;;5006646;28;20266;-75
2023/07/26 08:12:55;;;;;;;6.60;5.30;;;;;;;;;;5020477;28;20198;-73
2023/07/26 08:15:21;;;;;;;6.07;4.80;;;;;;;;;;5021434;28;20185;-80
2023/07/26 08:17:47;;;;;;;5.40;4.53;;;;;;;;;;4992227;28;20342;-82
2023/07/26 08:20:13;;;;;;;4.67;4.27;;;;;;;;;;5026998;28;20186;-82
2023/07/26 08:22:40;;;;;;;4.03;3.67;;;;;;;;;;5005602;28;20210;-77
2023/07/26 08:25:06;;;;;;;4.43;4.10;;;;;;;;;;5018877;28;20182;-76
2023/07/26 08:27:33;;;;;;;6.20;4.83;;;;;;;;;;5006334;28;20183;-78
2023/07/26 08:29:59;;;;;;;4.73;4.23;;;;;;;;;;5003997;28;20216;-78
2023/07/26 08:32:26;;;;;;;4.50;4.10;;;;;;;;;;5016560;28;20440;-77
2023/07/26 08:34:52;;;;;;;4.80;4.40;;;;;;;;;;5020796;28;20194;-77
2023/07/26 08:37:18;;;;;;;4.90;3.93;;;;;;;;;;4995273;28;20190;-77
2023/07/26 08:39:45;;;;;;;5.43;4.10;;;;;;;;;;5018609;28;20687;-78
2023/07/26 08:42:11;;;;;;;4.23;3.83;;;;;;;;;;5004805;28;20289;-76
2023/07/26 08:44:38;;;;;;;4.80;4.30;;;;;;;;;;5005864;28;20273;-77
2023/07/26 08:47:05;;;;;;;4.43;3.97;;;;;;;;;;4989931;28;20420;-76
2023/07/26 08:49:32;;;;;;;5.07;4.57;;;;;;;;;;5006440;28;20671;-76
2023/07/26 08:51:58;;;;;;;5.53;5.03;;;;;;;;;;4999762;28;20646;-76
2023/07/26 08:54:24;;;;;;;8.17;5.30;;;;;;;;;;5023877;28;20182;-76
2023/07/26 08:56:51;;;;;;;5.57;5.07;;;;;;;;;;4996589;28;20341;-76
2023/07/26 08:59:17;;;;;;;5.17;4.67;;;;;;;;;;5005795;28;20225;-79
2023/07/26 09:01:43;;;;;;;4.93;4.40;;;;;;;;;;5018075;28;20221;-77
2023/07/26 09:04:10;;;;;;;4.90;4.50;;;;;;;;;;5004054;28;20285;-76
2023/07/26 09:06:40;;;;;;;4.43;4.00;;;;;;;;;;5021641;28;20193;-76
2023/07/26 09:09:09;;;;;;;4.60;3.47;;;;;;;;;;5021958;28;20264;-77
2023/07/26 09:11:35;;;;;;;8.93;4.03;;;;;;;;;;4990511;28;20207;-78
2023/07/26 09:14:03;;;;;;;5.30;3.77;;;;;;;;;;5002231;28;20201;-76
2023/07/26 09:16:31;;;;;;;7.43;3.77;;;;;;;;;;5020767;28;20185;-77
2023/07/26 09:19:01;;;;;;;5.60;3.70;;;;;;;;;;5018784;28;20178;-79
2023/07/26 09:21:28;;;;;;;4.53;3.50;;;;;;;;;;5000256;28;20308;-77
2023/07/26 09:23:55;;;;;;;4.33;3.47;;;;;;;;;;5009711;28;20184;-76
2023/07/26 09:26:33;;;;;;;3.50;3.20;;;;;;;;;;5020096;28;20181;-77
2023/07/26 09:28:59;;;;;;;6.10;3.73;;;;;;;;;;5006472;28;20206;-78
2023/07/26 09:31:32;;;;;;;3.10;2.77;;;;;;;;;;5003262;28;20187;-78
2023/07/26 09:34:00;;;;;;;5.50;3.30;;;;;;;;;;5024835;28;20529;-76
2023/07/26 09:36:26;;;;;;;3.30;2.90;;;;;;;;;;5002599;28;20179;-77
2023/07/26 09:38:52;;;;;;;5.00;3.50;;;;;;;;;;5003744;28;20555;-76
2023/07/26 09:41:23;;;;;;;5.13;3.80;;;;;;;;;;5027099;28;20197;-76
2023/07/26 09:43:51;;;;;;;3.57;3.10;;;;;;;;;;5025053;28;20205;-76
2023/07/26 09:46:17;;;;;;;4.47;3.17;;;;;;;;;;4990676;28;20695;-76
2023/07/26 09:48:59;;;;;;;5.07;3.20;;;;;;;;;;5018625;28;20255;-76
2023/07/26 09:51:26;;;;;;;4.83;3.57;;;;;;;;;;4995203;28;20289;-76
2023/07/26 09:53:55;;;;;;;4.57;3.30;;;;;;;;;;5023849;28;20459;-78
2023/07/26 09:56:21;;;;;;;5.13;3.20;;;;;;;;;;5020288;28;20197;-76
2023/07/26 09:58:50;;;;;;;5.23;4.30;;;;;;;;;;5006594;28;20195;-76
2023/07/26 10:01:19;;;;;;;4.80;4.27;;;;;;;;;;5023199;28;20568;-77
2023/07/26 10:03:51;;;;;;;3.70;3.40;;;;;;;;;;5016529;28;20184;-76
2023/07/26 10:06:17;;;;;;;4.23;3.83;;;;;;;;;;5003809;28;20321;-76
2023/07/26 10:08:45;;;;;;;3.93;3.47;;;;;;;;;;5024759;28;20259;-76
2023/07/26 10:11:12;;;;;;;4.03;3.63;;;;;;;;;;5022042;28;20179;-79
2023/07/26 10:13:39;;;;;;;4.37;2.90;;;;;;;;;;5003652;28;20182;-77
2023/07/26 10:16:06;;;;;;;4.10;3.70;;;;;;;;;;5018322;28;20179;-77
2023/07/26 10:18:33;;;;;;;3.60;3.20;;;;;;;;;;5021982;28;20186;-81
2023/07/26 10:21:00;;;;;;;4.27;3.50;;;;;;;;;;4971066;28;20746;-91
2023/07/26 10:23:27;;;;;;;3.40;3.10;;;;;;;;;;4989095;28;20207;-79
2023/07/26 10:25:55;;;;;;;3.73;3.00;;;;;;;;;;5022887;28;20178;-76
2023/07/26 10:28:21;;;;;;;4.43;3.10;;;;;;;;;;5023296;28;20234;-76
2023/07/26 10:30:47;;;;;;;4.23;3.20;;;;;;;;;;5005630;28;20317;-76
2023/07/26 10:33:14;;;;;;;3.73;3.30;;;;;;;;;;5026477;28;20190;-76
2023/07/26 10:35:43;;;;;;;3.43;3.10;;;;;;;;;;5020748;28;20626;-76
2023/07/26 10:38:13;;;;;;;5.03;3.10;;;;;;;;;;5021400;28;20183;-76
2023/07/26 10:40:40;;;;;;;7.03;3.53;;;;;;;;;;5016619;28;20194;-79
2023/07/26 10:43:35;;;;;;;4.03;3.00;;;;;;;;;;5005322;28;20210;-76
2023/07/26 10:46:08;;;;;;;3.60;3.30;;;;;;;;;;4983982;28;20667;-78
2023/07/26 10:48:39;;;;;;;3.90;3.10;;;;;;;;;;5000639;28;20293;-75
2023/07/26 10:51:23;;;;;;;5.53;3.23;;;;;;;;;;5021508;28;20194;-75
2023/07/26 10:53:50;;;;;;;3.33;2.97;;;;;;;;;;5023754;28;20209;-77
2023/07/26 10:56:20;;;;;;;5.23;3.43;;;;;;;;;;5022108;28;20175;-79
2023/07/26 10:58:50;;;;;;;5.30;2.90;;;;;;;;;;5021138;28;20187;-79
2023/07/26 11:01:49;;;;;;;3.87;3.10;;;;;;;;;;5046917;22;20233;-81
2023/07/26 11:04:20;;;;;;;3.77;3.37;;;;;;;;;;4978149;28;20551;-76
2023/07/26 11:06:53;;;;;;;10.70;5.10;;;;;;;;;;5013355;28;20181;-74
2023/07/26 11:09:21;;;;;;;7.37;4.70;;;;;;;;;;5010685;28;20361;-74
2023/07/26 11:11:58;;;;;;;5.77;4.90;;;;;;;;;;5003613;28;20336;-74
2023/07/26 11:14:30;;;;;;;4.67;3.40;;;;;;;;;;5010570;28;20190;-75
2023/07/26 11:16:58;;;;;;;4.63;3.27;;;;;;;;;;5012517;28;20449;-75
2023/07/26 11:19:24;;;;;;;4.10;3.33;;;;;;;;;;5011899;28;20233;-75
2023/07/26 11:21:51;;;;;;;3.67;3.20;;;;;;;;;;5014017;28;20210;-75
2023/07/26 11:24:17;;;;;;;3.27;2.97;;;;;;;;;;5020867;28;20643;-75
2023/07/26 11:26:44;;;;;;;5.83;3.60;;;;;;;;;;5012066;28;20201;-76
2023/07/26 11:29:10;;;;;;;5.17;3.60;;;;;;;;;;5010758;28;20733;-73
2023/07/26 11:31:37;;;;;;;5.37;3.50;;;;;;;;;;5046444;28;20225;-75
2023/07/26 11:34:14;;;;;;;6.57;3.90;;;;;;;;;;5017334;28;20772;-82
2023/07/26 11:36:41;;;;;;;6.37;3.47;;;;;;;;;;5017141;28;20182;-75
2023/07/26 11:39:07;;;;;;;4.77;3.30;;;;;;;;;;5031264;28;20564;-74
2023/07/26 11:41:33;;;;;;;4.93;3.80;;;;;;;;;;5029989;28;20221;-74
2023/07/26 11:44:00;;;;;;;6.47;3.70;;;;;;;;;;5046961;28;20666;-74
2023/07/26 11:46:27;;;;;;;7.20;3.80;;;;;;;;;;5047534;28;20224;-75
2023/07/26 11:48:53;;;;;;;3.60;3.30;;;;;;;;;;5040008;28;20635;-74
2023/07/26 11:51:20;;;;;;;4.57;3.40;;;;;;;;;;5030614;28;20275;-74
2023/07/26 11:53:47;;;;;;;3.97;3.30;;;;;;;;;;5048277;28;20182;-74
2023/07/26 11:56:14;;;;;;;4.03;3.33;;;;;;;;;;5048877;28;20264;-75
2023/07/26 11:58:43;;;;;;;3.17;2.90;;;;;;;;;;5044290;28;20548;-75
2023/07/26 12:01:10;;;;;;;5.70;3.07;;;;;;;;;;5049789;28;20198;-74
2023/07/26 12:03:36;;;;;;;5.87;3.10;;;;;;;;;;5046356;28;20824;-74
2023/07/26 12:06:04;;;;;;;3.70;2.80;;;;;;;;;;5048654;28;20545;-75
2023/07/26 12:08:30;;;;;;;4.70;2.70;;;;;;;;;;5048040;28;20217;-75
2023/07/26 12:10:56;;;;;;;3.83;3.20;;;;;;;;;;5045883;28;20619;-75
2023/07/26 12:13:23;;;;;;;3.43;3.00;;;;;;;;;;5049323;28;20585;-75
2023/07/26 12:15:53;;;;;;;3.47;2.77;;;;;;;;;;5049363;28;20657;-75
2023/07/26 12:18:23;;;;;;;2.93;2.70;;;;;;;;;;5049108;28;20208;-75
2023/07/26 12:21:02;;;;;;;3.00;2.50;;;;;;;;;;5050157;28;20189;-75
2023/07/26 12:23:30;;;;;;;3.00;2.30;;;;;;;;;;5047252;28;20569;-75
2023/07/26 12:25:57;;;;;;;3.23;2.23;;;;;;;;;;5042995;28;20205;-75
2023/07/26 12:28:26;;;;;;;2.20;2.00;;;;;;;;;;5047370;28;20214;-76
2023/07/26 12:30:54;;;;;;;3.50;1.90;;;;;;;;;;5048142;28;20217;-75
2023/07/26 12:33:20;;;;;;;2.20;1.93;;;;;;;;;;5045215;28;20201;-75
2023/07/26 12:35:46;;;;;;;2.53;2.00;;;;;;;;;;5048887;28;20531;-75
2023/07/26 12:38:14;;;;;;;2.00;1.80;;;;;;;;;;5047325;28;20178;-75
2023/07/26 12:40:40;;;;;;;2.27;2.00;;;;;;;;;;5048565;28;20583;-75
2023/07/26 12:43:29;;;;;;;2.10;1.90;;;;;;;;;;5049156;28;20692;-75
2023/07/26 12:45:55;;;;;;;2.10;1.90;;;;;;;;;;5045617;28;20261;-75
2023/07/26 12:48:25;;;;;;;2.07;1.87;;;;;;;;;;5047108;28;20191;-76
2023/07/26 12:50:52;;;;;;;2.30;2.10;;;;;;;;;;5049045;28;20206;-76
2023/07/26 12:53:22;;;;;;;2.67;1.90;;;;;;;;;;5048158;28;20217;-75
2023/07/26 12:55:48;;;;;;;2.27;2.07;;;;;;;;;;5014473;28;20235;-75
2023/07/26 12:58:15;;;;;;;2.20;2.00;;;;;;;;;;5033470;28;20191;-76
2023/07/26 13:00:42;;;;;;;2.20;2.00;;;;;;;;;;5016856;28;20202;-75
2023/07/26 13:03:08;;;;;;;2.70;2.20;;;;;;;;;;5028836;28;20217;-75
2023/07/26 13:05:34;;;;;;;2.53;2.30;;;;;;;;;;5016871;28;20190;-75
2023/07/26 13:08:01;;;;;;;3.73;3.10;;;;;;;;;;5016395;28;20200;-75
2023/07/26 13:10:28;;;;;;;5.67;3.17;;;;;;;;;;5033008;28;20699;-75
2023/07/26 13:12:54;;;;;;;5.67;3.03;;;;;;;;;;5016350;28;20255;-75
2023/07/26 13:15:21;;;;;;;4.80;2.80;;;;;;;;;;5016433;28;20185;-74
2023/07/26 13:17:48;;;;;;;7.93;3.33;;;;;;;;;;5015925;28;20596;-75
2023/07/26 13:20:15;;;;;;;4.10;2.80;;;;;;;;;;5015990;28;20243;-75
2023/07/26 13:22:41;;;;;;;3.00;2.70;;;;;;;;;;5013036;28;20237;-76
2023/07/26 13:25:08;;;;;;;3.17;2.87;;;;;;;;;;5032682;28;20253;-74
2023/07/26 13:27:34;;;;;;;3.30;2.90;;;;;;;;;;5016171;28;20591;-74
2023/07/26 13:30:01;;;;;;;3.17;2.73;;;;;;;;;;5015836;28;20217;-74
2023/07/26 13:32:27;;;;;;;3.33;2.63;;;;;;;;;;5016357;28;20205;-74
2023/07/26 13:34:53;;;;;;;3.37;2.43;;;;;;;;;;5046714;28;20627;-74
2023/07/26 13:37:19;;;;;;;3.40;2.97;;;;;;;;;;5046992;28;20181;-75
2023/07/26 13:39:45;;;;;;;3.00;2.40;;;;;;;;;;5046575;28;20433;-75
2023/07/26 13:42:12;;;;;;;2.57;2.27;;;;;;;;;;5048202;28;20210;-75
2023/07/26 13:44:38;;;;;;;4.23;2.47;;;;;;;;;;5043918;28;20598;-75
2023/07/26 13:47:04;;;;;;;4.07;2.60;;;;;;;;;;5029151;28;20277;-75
2023/07/26 13:49:30;;;;;;;2.63;2.30;;;;;;;;;;5043662;28;20202;-75
2023/07/26 13:51:56;;;;;;;4.00;2.90;;;;;;;;;;5042076;28;20221;-75
2023/07/26 13:54:23;;;;;;;2.57;2.37;;;;;;;;;;5047127;28;20178;-75
2023/07/26 13:56:49;;;;;;;3.00;2.60;;;;;;;;;;5038679;28;20190;-75
2023/07/26 13:59:15;;;;;;;2.77;2.47;;;;;;;;;;5043501;28;20186;-75
2023/07/26 14:01:41;;;;;;;4.33;2.70;;;;;;;;;;5045965;28;20240;-75
2023/07/26 14:04:07;;;;;;;3.13;2.80;;;;;;;;;;5046195;28;20189;-75
2023/07/26 14:06:33;;;;;;;3.40;2.60;;;;;;;;;;5045592;28;20181;-75
2023/07/26 14:09:00;;;;;;;3.00;2.57;;;;;;;;;;5045697;28;20303;-75
2023/07/26 14:11:26;;;;;;;3.03;2.70;;;;;;;;;;5047607;28;20204;-75
2023/07/26 14:13:52;;;;;;;4.83;2.87;;;;;;;;;;5047336;28;20375;-75
2023/07/26 14:16:18;;;;;;;4.30;3.17;;;;;;;;;;5044560;28;20265;-75
2023/07/26 14:18:45;;;;;;;3.63;2.97;;;;;;;;;;5039893;28;20619;-75
2023/07/26 14:21:11;;;;;;;5.33;2.90;;;;;;;;;;5029733;28;20198;-74
2023/07/26 14:23:38;;;;;;;5.20;3.10;;;;;;;;;;5043776;28;20197;-75
2023/07/26 14:26:04;;;;;;;3.90;3.50;;;;;;;;;;5042031;28;20182;-75
2023/07/26 14:28:30;;;;;;;3.50;2.93;;;;;;;;;;5045952;28;20205;-75
2023/07/26 14:30:58;;;;;;;4.57;3.37;;;;;;;;;;5046323;28;20445;-75
2023/07/26 14:33:24;;;;;;;4.03;3.10;;;;;;;;;;5047466;28;20284;-75
2023/07/26 14:35:50;;;;;;;6.63;3.17;;;;;;;;;;5029273;28;20605;-75
2023/07/26 14:38:16;;;;;;;4.40;2.90;;;;;;;;;;5046706;28;20469;-75
2023/07/26 14:40:43;;;;;;;3.33;3.03;;;;;;;;;;5047107;28;20188;-75